sensor_id;sensor_type;location;lat;lon;timestamp;P1;durP1;ratioP1;P2;durP2;ratioP2
14181;SDS011;7171;50.936;6.764;2022-08-21T00:02:12;2.95;;;1.90;;
14181;SDS011;7171;50.936;6.764;2022-08-21T00:04:41;2.47;;;1.90;;
14181;SDS011;7171;50.936;6.764;2022-08-21T00:07:08;1.98;;;1.88;;
14181;SDS011;7171;50.936;6.764;2022-08-21T00:09:36;2.50;;;1.73;;
14181;SDS011;7171;50.936;6.764;2022-08-21T00:12:03;2.10;;;1.90;;
14181;SDS011;7171;50.936;6.764;2022-08-21T00:14:30;2.22;;;2.03;;
14181;SDS011;7171;50.936;6.764;2022-08-21T00:16:58;2.00;;;1.80;;
14181;SDS011;7171;50.936;6.764;2022-08-21T00:19:25;1.92;;;1.83;;
14181;SDS011;7171;50.936;6.764;2022-08-21T00:21:52;2.38;;;2.13;;
14181;SDS011;7171;50.936;6.764;2022-08-21T00:24:19;3.17;;;1.95;;
14181;SDS011;7171;50.936;6.764;2022-08-21T00:26:48;2.20;;;2.00;;
14181;SDS011;7171;50.936;6.764;2022-08-21T00:29:15;2.00;;;1.80;;
14181;SDS011;7171;50.936;6.764;2022-08-21T00:31:42;2.55;;;2.35;;
14181;SDS011;7171;50.936;6.764;2022-08-21T00:34:10;2.17;;;1.95;;
14181;SDS011;7171;50.936;6.764;2022-08-21T00:36:38;2.60;;;2.40;;
14181;SDS011;7171;50.936;6.764;2022-08-21T00:39:05;3.10;;;2.28;;
14181;SDS011;7171;50.936;6.764;2022-08-21T00:41:34;2.38;;;2.00;;
14181;SDS011;7171;50.936;6.764;2022-08-21T00:44:04;3.75;;;2.70;;
14181;SDS011;7171;50.936;6.764;2022-08-21T00:46:31;2.30;;;1.98;;
14181;SDS011;7171;50.936;6.764;2022-08-21T00:48:58;3.67;;;2.38;;
14181;SDS011;7171;50.936;6.764;2022-08-21T00:51:27;3.15;;;2.13;;
14181;SDS011;7171;50.936;6.764;2022-08-21T00:54:01;2.42;;;2.15;;
14181;SDS011;7171;50.936;6.764;2022-08-21T00:56:29;3.22;;;2.75;;
14181;SDS011;7171;50.936;6.764;2022-08-21T00:58:56;2.78;;;2.40;;
14181;SDS011;7171;50.936;6.764;2022-08-21T01:01:26;2.85;;;2.53;;
14181;SDS011;7171;50.936;6.764;2022-08-21T01:03:53;2.47;;;2.28;;
14181;SDS011;7171;50.936;6.764;2022-08-21T01:06:20;3.17;;;2.55;;
14181;SDS011;7171;50.936;6.764;2022-08-21T01:08:47;2.85;;;2.55;;
14181;SDS011;7171;50.936;6.764;2022-08-21T01:11:14;2.90;;;2.30;;
14181;SDS011;7171;50.936;6.764;2022-08-21T01:13:41;3.10;;;2.80;;
14181;SDS011;7171;50.936;6.764;2022-08-21T01:16:12;3.35;;;2.58;;
14181;SDS011;7171;50.936;6.764;2022-08-21T01:18:42;3.00;;;2.50;;
14181;SDS011;7171;50.936;6.764;2022-08-21T01:21:12;3.25;;;2.88;;
14181;SDS011;7171;50.936;6.764;2022-08-21T01:23:43;3.28;;;2.83;;
14181;SDS011;7171;50.936;6.764;2022-08-21T01:26:12;3.55;;;2.83;;
14181;SDS011;7171;50.936;6.764;2022-08-21T01:28:42;2.92;;;2.42;;
14181;SDS011;7171;50.936;6.764;2022-08-21T01:31:12;3.85;;;2.97;;
14181;SDS011;7171;50.936;6.764;2022-08-21T01:33:41;2.42;;;2.22;;
14181;SDS011;7171;50.936;6.764;2022-08-21T01:36:08;2.85;;;2.65;;
14181;SDS011;7171;50.936;6.764;2022-08-21T01:38:36;2.90;;;2.60;;
14181;SDS011;7171;50.936;6.764;2022-08-21T01:41:03;3.63;;;2.92;;
14181;SDS011;7171;50.936;6.764;2022-08-21T01:43:29;4.18;;;3.40;;
14181;SDS011;7171;50.936;6.764;2022-08-21T01:45:56;3.42;;;2.88;;
14181;SDS011;7171;50.936;6.764;2022-08-21T01:48:23;3.80;;;2.85;;
14181;SDS011;7171;50.936;6.764;2022-08-21T01:50:52;2.78;;;2.58;;
14181;SDS011;7171;50.936;6.764;2022-08-21T01:53:19;3.58;;;2.58;;
14181;SDS011;7171;50.936;6.764;2022-08-21T01:55:47;2.47;;;2.28;;
14181;SDS011;7171;50.936;6.764;2022-08-21T01:58:14;4.00;;;3.00;;
14181;SDS011;7171;50.936;6.764;2022-08-21T02:00:41;3.35;;;2.63;;
14181;SDS011;7171;50.936;6.764;2022-08-21T02:03:08;3.33;;;2.83;;
14181;SDS011;7171;50.936;6.764;2022-08-21T02:05:35;2.83;;;2.55;;
14181;SDS011;7171;50.936;6.764;2022-08-21T02:08:02;2.88;;;2.58;;
14181;SDS011;7171;50.936;6.764;2022-08-21T02:10:30;2.88;;;2.60;;
14181;SDS011;7171;50.936;6.764;2022-08-21T02:13:00;2.72;;;2.53;;
14181;SDS011;7171;50.936;6.764;2022-08-21T02:15:27;2.53;;;2.33;;
14181;SDS011;7171;50.936;6.764;2022-08-21T02:17:56;3.15;;;2.42;;
14181;SDS011;7171;50.936;6.764;2022-08-21T02:20:25;2.40;;;2.20;;
14181;SDS011;7171;50.936;6.764;2022-08-21T02:22:53;2.92;;;2.20;;
14181;SDS011;7171;50.936;6.764;2022-08-21T02:25:21;2.80;;;2.47;;
14181;SDS011;7171;50.936;6.764;2022-08-21T02:27:49;3.33;;;2.30;;
14181;SDS011;7171;50.936;6.764;2022-08-21T02:30:20;3.03;;;2.55;;
14181;SDS011;7171;50.936;6.764;2022-08-21T02:32:49;6.75;;;2.67;;
14181;SDS011;7171;50.936;6.764;2022-08-21T02:35:15;2.72;;;2.25;;
14181;SDS011;7171;50.936;6.764;2022-08-21T02:37:44;3.45;;;2.10;;
14181;SDS011;7171;50.936;6.764;2022-08-21T02:40:12;3.22;;;2.60;;
14181;SDS011;7171;50.936;6.764;2022-08-21T02:42:39;2.08;;;1.98;;
14181;SDS011;7171;50.936;6.764;2022-08-21T02:45:07;2.78;;;2.58;;
14181;SDS011;7171;50.936;6.764;2022-08-21T02:47:35;2.78;;;2.20;;
14181;SDS011;7171;50.936;6.764;2022-08-21T02:50:04;2.00;;;1.85;;
14181;SDS011;7171;50.936;6.764;2022-08-21T02:52:32;2.88;;;2.45;;
14181;SDS011;7171;50.936;6.764;2022-08-21T02:54:59;2.17;;;1.98;;
14181;SDS011;7171;50.936;6.764;2022-08-21T02:57:26;3.05;;;2.10;;
14181;SDS011;7171;50.936;6.764;2022-08-21T02:59:53;3.53;;;2.60;;
14181;SDS011;7171;50.936;6.764;2022-08-21T03:02:20;2.00;;;1.90;;
14181;SDS011;7171;50.936;6.764;2022-08-21T03:04:48;2.78;;;1.92;;
14181;SDS011;7171;50.936;6.764;2022-08-21T03:07:15;4.10;;;2.30;;
14181;SDS011;7171;50.936;6.764;2022-08-21T03:09:42;2.40;;;2.08;;
14181;SDS011;7171;50.936;6.764;2022-08-21T03:12:08;1.98;;;1.77;;
14181;SDS011;7171;50.936;6.764;2022-08-21T03:14:35;2.17;;;1.98;;
14181;SDS011;7171;50.936;6.764;2022-08-21T03:17:03;4.05;;;2.17;;
14181;SDS011;7171;50.936;6.764;2022-08-21T03:19:30;2.35;;;2.15;;
14181;SDS011;7171;50.936;6.764;2022-08-21T03:21:59;3.67;;;2.75;;
14181;SDS011;7171;50.936;6.764;2022-08-21T03:24:26;2.55;;;2.35;;
14181;SDS011;7171;50.936;6.764;2022-08-21T03:26:52;2.45;;;1.70;;
14181;SDS011;7171;50.936;6.764;2022-08-21T03:29:19;4.43;;;2.58;;
14181;SDS011;7171;50.936;6.764;2022-08-21T03:31:46;3.92;;;2.45;;
14181;SDS011;7171;50.936;6.764;2022-08-21T03:34:13;3.05;;;2.25;;
14181;SDS011;7171;50.936;6.764;2022-08-21T03:36:40;3.30;;;2.15;;
14181;SDS011;7171;50.936;6.764;2022-08-21T03:39:08;5.90;;;2.70;;
14181;SDS011;7171;50.936;6.764;2022-08-21T03:41:35;2.58;;;2.38;;
14181;SDS011;7171;50.936;6.764;2022-08-21T03:44:02;2.85;;;2.40;;
14181;SDS011;7171;50.936;6.764;2022-08-21T03:46:29;2.60;;;2.40;;
14181;SDS011;7171;50.936;6.764;2022-08-21T03:48:56;2.20;;;1.98;;
14181;SDS011;7171;50.936;6.764;2022-08-21T03:51:23;5.30;;;2.63;;
14181;SDS011;7171;50.936;6.764;2022-08-21T03:53:50;3.75;;;2.60;;
14181;SDS011;7171;50.936;6.764;2022-08-21T03:56:18;2.53;;;2.00;;
14181;SDS011;7171;50.936;6.764;2022-08-21T03:58:45;2.53;;;2.33;;
14181;SDS011;7171;50.936;6.764;2022-08-21T04:01:12;2.80;;;2.13;;
14181;SDS011;7171;50.936;6.764;2022-08-21T04:03:39;5.75;;;2.55;;
14181;SDS011;7171;50.936;6.764;2022-08-21T04:06:06;2.60;;;2.40;;
14181;SDS011;7171;50.936;6.764;2022-08-21T04:08:34;4.72;;;2.65;;
14181;SDS011;7171;50.936;6.764;2022-08-21T04:11:01;2.90;;;2.10;;
14181;SDS011;7171;50.936;6.764;2022-08-21T04:13:29;2.92;;;2.05;;
14181;SDS011;7171;50.936;6.764;2022-08-21T04:15:56;4.30;;;2.10;;
14181;SDS011;7171;50.936;6.764;2022-08-21T04:18:24;2.22;;;1.75;;
14181;SDS011;7171;50.936;6.764;2022-08-21T04:20:51;2.22;;;1.92;;
14181;SDS011;7171;50.936;6.764;2022-08-21T04:23:20;3.03;;;2.67;;
14181;SDS011;7171;50.936;6.764;2022-08-21T04:25:47;4.18;;;2.65;;
14181;SDS011;7171;50.936;6.764;2022-08-21T04:28:14;3.60;;;2.53;;
14181;SDS011;7171;50.936;6.764;2022-08-21T04:30:42;2.80;;;2.60;;
14181;SDS011;7171;50.936;6.764;2022-08-21T04:33:09;4.30;;;2.15;;
14181;SDS011;7171;50.936;6.764;2022-08-21T04:35:36;2.95;;;2.33;;
14181;SDS011;7171;50.936;6.764;2022-08-21T04:38:03;2.92;;;2.40;;
14181;SDS011;7171;50.936;6.764;2022-08-21T04:40:30;2.92;;;2.60;;
14181;SDS011;7171;50.936;6.764;2022-08-21T04:42:57;2.75;;;2.35;;
14181;SDS011;7171;50.936;6.764;2022-08-21T04:45:28;3.75;;;2.50;;
14181;SDS011;7171;50.936;6.764;2022-08-21T04:47:59;2.55;;;2.35;;
14181;SDS011;7171;50.936;6.764;2022-08-21T04:50:29;3.22;;;2.92;;
14181;SDS011;7171;50.936;6.764;2022-08-21T04:53:02;7.38;;;2.78;;
14181;SDS011;7171;50.936;6.764;2022-08-21T04:55:29;5.97;;;2.90;;
14181;SDS011;7171;50.936;6.764;2022-08-21T04:57:56;5.30;;;2.95;;
14181;SDS011;7171;50.936;6.764;2022-08-21T05:00:23;3.00;;;2.70;;
14181;SDS011;7171;50.936;6.764;2022-08-21T05:02:51;6.07;;;2.90;;
14181;SDS011;7171;50.936;6.764;2022-08-21T05:05:22;2.85;;;2.50;;
14181;SDS011;7171;50.936;6.764;2022-08-21T05:07:50;3.10;;;2.80;;
14181;SDS011;7171;50.936;6.764;2022-08-21T05:10:17;2.58;;;2.38;;
14181;SDS011;7171;50.936;6.764;2022-08-21T05:12:44;2.58;;;2.38;;
14181;SDS011;7171;50.936;6.764;2022-08-21T05:15:11;3.33;;;2.40;;
14181;SDS011;7171;50.936;6.764;2022-08-21T05:17:38;2.80;;;2.47;;
14181;SDS011;7171;50.936;6.764;2022-08-21T05:20:06;4.97;;;2.67;;
14181;SDS011;7171;50.936;6.764;2022-08-21T05:22:35;6.22;;;2.55;;
14181;SDS011;7171;50.936;6.764;2022-08-21T05:25:02;4.47;;;2.88;;
14181;SDS011;7171;50.936;6.764;2022-08-21T05:27:29;7.88;;;2.65;;
14181;SDS011;7171;50.936;6.764;2022-08-21T05:29:57;2.53;;;2.28;;
14181;SDS011;7171;50.936;6.764;2022-08-21T05:32:24;4.38;;;2.65;;
14181;SDS011;7171;50.936;6.764;2022-08-21T05:34:52;2.85;;;2.20;;
14181;SDS011;7171;50.936;6.764;2022-08-21T05:37:19;2.42;;;1.98;;
14181;SDS011;7171;50.936;6.764;2022-08-21T05:39:48;6.57;;;2.58;;
14181;SDS011;7171;50.936;6.764;2022-08-21T05:42:15;1.88;;;1.77;;
14181;SDS011;7171;50.936;6.764;2022-08-21T05:44:41;3.45;;;2.15;;
14181;SDS011;7171;50.936;6.764;2022-08-21T05:47:09;2.95;;;2.25;;
14181;SDS011;7171;50.936;6.764;2022-08-21T05:49:36;3.30;;;1.95;;
14181;SDS011;7171;50.936;6.764;2022-08-21T05:52:03;2.60;;;2.00;;
14181;SDS011;7171;50.936;6.764;2022-08-21T05:54:30;3.92;;;1.70;;
14181;SDS011;7171;50.936;6.764;2022-08-21T05:56:59;2.22;;;1.80;;
14181;SDS011;7171;50.936;6.764;2022-08-21T05:59:25;1.85;;;1.70;;
14181;SDS011;7171;50.936;6.764;2022-08-21T06:01:52;2.30;;;1.80;;
14181;SDS011;7171;50.936;6.764;2022-08-21T06:04:19;3.03;;;1.80;;
14181;SDS011;7171;50.936;6.764;2022-08-21T06:06:46;2.28;;;1.45;;
14181;SDS011;7171;50.936;6.764;2022-08-21T06:09:13;1.77;;;1.60;;
14181;SDS011;7171;50.936;6.764;2022-08-21T06:11:40;1.90;;;1.60;;
14181;SDS011;7171;50.936;6.764;2022-08-21T06:14:08;2.58;;;1.80;;
14181;SDS011;7171;50.936;6.764;2022-08-21T06:16:35;2.80;;;1.35;;
14181;SDS011;7171;50.936;6.764;2022-08-21T06:19:02;3.17;;;1.42;;
14181;SDS011;7171;50.936;6.764;2022-08-21T06:21:29;2.08;;;1.88;;
14181;SDS011;7171;50.936;6.764;2022-08-21T06:23:56;1.73;;;1.50;;
14181;SDS011;7171;50.936;6.764;2022-08-21T06:26:23;1.40;;;1.30;;
14181;SDS011;7171;50.936;6.764;2022-08-21T06:28:49;1.88;;;1.42;;
14181;SDS011;7171;50.936;6.764;2022-08-21T06:31:18;2.17;;;1.33;;
14181;SDS011;7171;50.936;6.764;2022-08-21T06:33:47;1.52;;;1.40;;
14181;SDS011;7171;50.936;6.764;2022-08-21T06:36:14;2.63;;;1.63;;
14181;SDS011;7171;50.936;6.764;2022-08-21T06:38:41;1.33;;;1.23;;
14181;SDS011;7171;50.936;6.764;2022-08-21T06:41:08;2.05;;;1.35;;
14181;SDS011;7171;50.936;6.764;2022-08-21T06:43:35;3.25;;;1.40;;
14181;SDS011;7171;50.936;6.764;2022-08-21T06:46:02;1.50;;;1.15;;
14181;SDS011;7171;50.936;6.764;2022-08-21T06:48:31;1.23;;;1.05;;
14181;SDS011;7171;50.936;6.764;2022-08-21T06:50:59;2.85;;;1.60;;
14181;SDS011;7171;50.936;6.764;2022-08-21T06:53:26;1.83;;;1.40;;
14181;SDS011;7171;50.936;6.764;2022-08-21T06:55:53;2.25;;;1.70;;
14181;SDS011;7171;50.936;6.764;2022-08-21T06:58:20;2.90;;;1.50;;
14181;SDS011;7171;50.936;6.764;2022-08-21T07:00:47;2.10;;;1.00;;
14181;SDS011;7171;50.936;6.764;2022-08-21T07:03:17;1.65;;;1.20;;
14181;SDS011;7171;50.936;6.764;2022-08-21T07:05:50;1.17;;;1.08;;
14181;SDS011;7171;50.936;6.764;2022-08-21T07:08:17;3.05;;;1.10;;
14181;SDS011;7171;50.936;6.764;2022-08-21T07:10:44;1.50;;;1.17;;
14181;SDS011;7171;50.936;6.764;2022-08-21T07:13:11;1.10;;;1.00;;
14181;SDS011;7171;50.936;6.764;2022-08-21T07:15:38;2.03;;;1.10;;
14181;SDS011;7171;50.936;6.764;2022-08-21T07:18:05;1.33;;;1.23;;
14181;SDS011;7171;50.936;6.764;2022-08-21T07:20:33;2.17;;;1.52;;
14181;SDS011;7171;50.936;6.764;2022-08-21T07:23:03;0.93;;;0.75;;
14181;SDS011;7171;50.936;6.764;2022-08-21T07:25:33;2.22;;;1.10;;
14181;SDS011;7171;50.936;6.764;2022-08-21T07:28:00;1.58;;;1.17;;
14181;SDS011;7171;50.936;6.764;2022-08-21T07:30:27;1.33;;;0.90;;
14181;SDS011;7171;50.936;6.764;2022-08-21T07:32:54;1.65;;;1.00;;
14181;SDS011;7171;50.936;6.764;2022-08-21T07:35:22;2.55;;;1.20;;
14181;SDS011;7171;50.936;6.764;2022-08-21T07:37:49;1.35;;;1.08;;
14181;SDS011;7171;50.936;6.764;2022-08-21T07:40:18;1.63;;;0.82;;
14181;SDS011;7171;50.936;6.764;2022-08-21T07:42:47;1.23;;;0.88;;
14181;SDS011;7171;50.936;6.764;2022-08-21T07:45:17;1.05;;;0.90;;
14181;SDS011;7171;50.936;6.764;2022-08-21T07:47:45;2.53;;;1.20;;
14181;SDS011;7171;50.936;6.764;2022-08-21T07:50:12;2.25;;;1.30;;
14181;SDS011;7171;50.936;6.764;2022-08-21T07:52:40;2.35;;;1.27;;
14181;SDS011;7171;50.936;6.764;2022-08-21T07:55:07;3.05;;;1.15;;
14181;SDS011;7171;50.936;6.764;2022-08-21T07:57:37;1.50;;;1.15;;
14181;SDS011;7171;50.936;6.764;2022-08-21T08:00:04;1.20;;;1.10;;
14181;SDS011;7171;50.936;6.764;2022-08-21T08:02:32;2.20;;;1.40;;
14181;SDS011;7171;50.936;6.764;2022-08-21T08:04:59;1.45;;;1.30;;
14181;SDS011;7171;50.936;6.764;2022-08-21T08:07:26;1.67;;;1.02;;
14181;SDS011;7171;50.936;6.764;2022-08-21T08:09:53;1.45;;;1.02;;
14181;SDS011;7171;50.936;6.764;2022-08-21T08:12:20;1.08;;;1.02;;
14181;SDS011;7171;50.936;6.764;2022-08-21T08:14:48;1.85;;;1.33;;
14181;SDS011;7171;50.936;6.764;2022-08-21T08:17:15;3.45;;;1.30;;
14181;SDS011;7171;50.936;6.764;2022-08-21T08:19:47;3.30;;;1.20;;
14181;SDS011;7171;50.936;6.764;2022-08-21T08:22:14;1.50;;;1.10;;
14181;SDS011;7171;50.936;6.764;2022-08-21T08:24:44;3.35;;;1.20;;
14181;SDS011;7171;50.936;6.764;2022-08-21T08:27:11;3.75;;;1.00;;
14181;SDS011;7171;50.936;6.764;2022-08-21T08:29:38;1.00;;;0.90;;
14181;SDS011;7171;50.936;6.764;2022-08-21T08:32:06;1.30;;;1.10;;
14181;SDS011;7171;50.936;6.764;2022-08-21T08:34:33;1.10;;;1.00;;
14181;SDS011;7171;50.936;6.764;2022-08-21T08:37:00;1.27;;;1.02;;
14181;SDS011;7171;50.936;6.764;2022-08-21T08:39:28;0.80;;;0.70;;
14181;SDS011;7171;50.936;6.764;2022-08-21T08:41:56;1.80;;;1.23;;
14181;SDS011;7171;50.936;6.764;2022-08-21T08:44:27;1.98;;;1.10;;
14181;SDS011;7171;50.936;6.764;2022-08-21T08:46:54;0.60;;;0.60;;
14181;SDS011;7171;50.936;6.764;2022-08-21T08:49:27;1.48;;;1.00;;
14181;SDS011;7171;50.936;6.764;2022-08-21T08:52:01;1.00;;;0.80;;
14181;SDS011;7171;50.936;6.764;2022-08-21T08:54:32;0.60;;;0.60;;
14181;SDS011;7171;50.936;6.764;2022-08-21T08:57:10;1.13;;;0.65;;
14181;SDS011;7171;50.936;6.764;2022-08-21T08:59:45;0.70;;;0.68;;
14181;SDS011;7171;50.936;6.764;2022-08-21T09:02:15;1.85;;;0.95;;
14181;SDS011;7171;50.936;6.764;2022-08-21T09:04:45;1.63;;;0.85;;
14181;SDS011;7171;50.936;6.764;2022-08-21T09:07:16;1.17;;;0.70;;
14181;SDS011;7171;50.936;6.764;2022-08-21T09:09:52;1.17;;;1.08;;
14181;SDS011;7171;50.936;6.764;2022-08-21T09:12:33;0.80;;;0.60;;
14181;SDS011;7171;50.936;6.764;2022-08-21T09:15:06;2.47;;;0.93;;
14181;SDS011;7171;50.936;6.764;2022-08-21T09:17:54;3.20;;;1.30;;
14181;SDS011;7171;50.936;6.764;2022-08-21T09:20:39;1.40;;;0.88;;
14181;SDS011;7171;50.936;6.764;2022-08-21T09:23:16;2.50;;;1.30;;
14181;SDS011;7171;50.936;6.764;2022-08-21T09:25:54;1.55;;;1.00;;
14181;SDS011;7171;50.936;6.764;2022-08-21T09:28:25;3.72;;;1.08;;
14181;SDS011;7171;50.936;6.764;2022-08-21T09:30:54;2.40;;;1.10;;
14181;SDS011;7171;50.936;6.764;2022-08-21T09:33:23;2.35;;;1.17;;
14181;SDS011;7171;50.936;6.764;2022-08-21T09:35:53;2.10;;;1.02;;
14181;SDS011;7171;50.936;6.764;2022-08-21T09:38:27;0.88;;;0.73;;
14181;SDS011;7171;50.936;6.764;2022-08-21T09:40:57;1.55;;;1.02;;
14181;SDS011;7171;50.936;6.764;2022-08-21T09:43:27;0.90;;;0.90;;
14181;SDS011;7171;50.936;6.764;2022-08-21T09:46:01;2.78;;;0.68;;
14181;SDS011;7171;50.936;6.764;2022-08-21T09:48:37;1.35;;;0.82;;
14181;SDS011;7171;50.936;6.764;2022-08-21T09:51:09;1.10;;;1.00;;
14181;SDS011;7171;50.936;6.764;2022-08-21T09:53:38;2.28;;;1.10;;
14181;SDS011;7171;50.936;6.764;2022-08-21T09:56:16;1.55;;;0.90;;
14181;SDS011;7171;50.936;6.764;2022-08-21T09:59:12;1.60;;;1.08;;
14181;SDS011;7171;50.936;6.764;2022-08-21T10:01:45;1.40;;;1.20;;
14181;SDS011;7171;50.936;6.764;2022-08-21T10:04:14;1.83;;;1.10;;
14181;SDS011;7171;50.936;6.764;2022-08-21T10:06:42;1.23;;;0.77;;
14181;SDS011;7171;50.936;6.764;2022-08-21T10:09:10;1.83;;;1.27;;
14181;SDS011;7171;50.936;6.764;2022-08-21T10:11:39;1.08;;;0.73;;
14181;SDS011;7171;50.936;6.764;2022-08-21T10:14:12;1.70;;;0.80;;
14181;SDS011;7171;50.936;6.764;2022-08-21T10:16:49;1.45;;;1.10;;
14181;SDS011;7171;50.936;6.764;2022-08-21T10:19:26;1.35;;;1.25;;
14181;SDS011;7171;50.936;6.764;2022-08-21T10:22:02;0.98;;;0.80;;
14181;SDS011;7171;50.936;6.764;2022-08-21T10:24:40;1.88;;;1.17;;
14181;SDS011;7171;50.936;6.764;2022-08-21T10:27:16;1.00;;;0.90;;
14181;SDS011;7171;50.936;6.764;2022-08-21T10:29:54;3.70;;;1.10;;
14181;SDS011;7171;50.936;6.764;2022-08-21T10:32:37;2.97;;;1.00;;
14181;SDS011;7171;50.936;6.764;2022-08-21T10:35:24;2.17;;;0.93;;
14181;SDS011;7171;50.936;6.764;2022-08-21T10:38:01;1.80;;;1.27;;
14181;SDS011;7171;50.936;6.764;2022-08-21T10:40:42;0.80;;;0.77;;
14181;SDS011;7171;50.936;6.764;2022-08-21T10:43:16;0.82;;;0.75;;
14181;SDS011;7171;50.936;6.764;2022-08-21T10:45:52;1.50;;;1.02;;
14181;SDS011;7171;50.936;6.764;2022-08-21T10:48:28;1.58;;;0.82;;
14181;SDS011;7171;50.936;6.764;2022-08-21T10:51:04;0.98;;;0.80;;
14181;SDS011;7171;50.936;6.764;2022-08-21T10:53:39;0.85;;;0.85;;
14181;SDS011;7171;50.936;6.764;2022-08-21T10:56:15;1.13;;;0.80;;
14181;SDS011;7171;50.936;6.764;2022-08-21T10:58:50;0.80;;;0.80;;
14181;SDS011;7171;50.936;6.764;2022-08-21T11:01:27;1.70;;;1.20;;
14181;SDS011;7171;50.936;6.764;2022-08-21T11:04:02;1.98;;;0.77;;
14181;SDS011;7171;50.936;6.764;2022-08-21T11:06:37;0.60;;;0.60;;
14181;SDS011;7171;50.936;6.764;2022-08-21T11:09:11;2.30;;;1.00;;
14181;SDS011;7171;50.936;6.764;2022-08-21T11:11:41;1.67;;;0.95;;
14181;SDS011;7171;50.936;6.764;2022-08-21T11:14:16;2.58;;;1.30;;
14181;SDS011;7171;50.936;6.764;2022-08-21T11:16:52;1.77;;;1.05;;
14181;SDS011;7171;50.936;6.764;2022-08-21T11:19:25;1.00;;;0.65;;
14181;SDS011;7171;50.936;6.764;2022-08-21T11:21:57;0.98;;;0.77;;
14181;SDS011;7171;50.936;6.764;2022-08-21T11:24:31;1.02;;;0.85;;
14181;SDS011;7171;50.936;6.764;2022-08-21T11:27:08;2.45;;;0.85;;
14181;SDS011;7171;50.936;6.764;2022-08-21T11:29:40;1.85;;;1.10;;
14181;SDS011;7171;50.936;6.764;2022-08-21T11:35:09;1.23;;;0.82;;
14181;SDS011;7171;50.936;6.764;2022-08-21T11:37:44;1.00;;;0.90;;
14181;SDS011;7171;50.936;6.764;2022-08-21T11:40:24;1.00;;;0.90;;
14181;SDS011;7171;50.936;6.764;2022-08-21T11:43:01;1.50;;;1.20;;
14181;SDS011;7171;50.936;6.764;2022-08-21T11:45:37;1.77;;;1.10;;
14181;SDS011;7171;50.936;6.764;2022-08-21T11:48:11;1.40;;;0.90;;
14181;SDS011;7171;50.936;6.764;2022-08-21T11:50:42;1.65;;;1.00;;
14181;SDS011;7171;50.936;6.764;2022-08-21T11:53:11;1.02;;;0.75;;
14181;SDS011;7171;50.936;6.764;2022-08-21T11:55:43;1.10;;;1.00;;
14181;SDS011;7171;50.936;6.764;2022-08-21T11:58:15;1.10;;;1.00;;
14181;SDS011;7171;50.936;6.764;2022-08-21T12:00:45;1.33;;;1.08;;
14181;SDS011;7171;50.936;6.764;2022-08-21T12:03:16;1.70;;;1.10;;
14181;SDS011;7171;50.936;6.764;2022-08-21T12:05:52;0.70;;;0.70;;
14181;SDS011;7171;50.936;6.764;2022-08-21T12:08:26;1.00;;;0.90;;
14181;SDS011;7171;50.936;6.764;2022-08-21T12:11:00;1.48;;;1.17;;
14181;SDS011;7171;50.936;6.764;2022-08-21T12:13:31;0.93;;;0.75;;
14181;SDS011;7171;50.936;6.764;2022-08-21T12:16:07;1.30;;;1.00;;
14181;SDS011;7171;50.936;6.764;2022-08-21T12:18:35;0.80;;;0.80;;
14181;SDS011;7171;50.936;6.764;2022-08-21T12:21:04;2.05;;;1.10;;
14181;SDS011;7171;50.936;6.764;2022-08-21T12:23:44;1.83;;;1.20;;
14181;SDS011;7171;50.936;6.764;2022-08-21T12:26:22;2.83;;;1.10;;
14181;SDS011;7171;50.936;6.764;2022-08-21T12:28:51;0.77;;;0.68;;
14181;SDS011;7171;50.936;6.764;2022-08-21T12:31:28;1.08;;;0.93;;
14181;SDS011;7171;50.936;6.764;2022-08-21T12:33:56;1.23;;;0.90;;
14181;SDS011;7171;50.936;6.764;2022-08-21T12:36:39;1.52;;;1.00;;
14181;SDS011;7171;50.936;6.764;2022-08-21T12:39:14;0.93;;;0.85;;
14181;SDS011;7171;50.936;6.764;2022-08-21T12:41:47;2.08;;;1.00;;
14181;SDS011;7171;50.936;6.764;2022-08-21T12:44:21;0.80;;;0.80;;
14181;SDS011;7171;50.936;6.764;2022-08-21T12:46:56;1.13;;;1.00;;
14181;SDS011;7171;50.936;6.764;2022-08-21T12:49:26;1.25;;;1.02;;
14181;SDS011;7171;50.936;6.764;2022-08-21T12:52:00;1.40;;;0.88;;
14181;SDS011;7171;50.936;6.764;2022-08-21T12:54:28;0.80;;;0.80;;
14181;SDS011;7171;50.936;6.764;2022-08-21T12:57:00;2.13;;;0.93;;
14181;SDS011;7171;50.936;6.764;2022-08-21T12:59:28;1.50;;;1.10;;
14181;SDS011;7171;50.936;6.764;2022-08-21T13:01:56;2.47;;;1.00;;
14181;SDS011;7171;50.936;6.764;2022-08-21T13:04:27;1.65;;;1.20;;
14181;SDS011;7171;50.936;6.764;2022-08-21T13:06:59;1.63;;;0.70;;
14181;SDS011;7171;50.936;6.764;2022-08-21T13:09:27;1.20;;;0.98;;
14181;SDS011;7171;50.936;6.764;2022-08-21T13:11:56;2.00;;;0.85;;
14181;SDS011;7171;50.936;6.764;2022-08-21T13:14:27;1.38;;;0.80;;
14181;SDS011;7171;50.936;6.764;2022-08-21T13:16:57;1.98;;;0.90;;
14181;SDS011;7171;50.936;6.764;2022-08-21T13:19:25;2.35;;;1.00;;
14181;SDS011;7171;50.936;6.764;2022-08-21T13:21:54;1.55;;;0.65;;
14181;SDS011;7171;50.936;6.764;2022-08-21T13:24:22;1.48;;;1.10;;
14181;SDS011;7171;50.936;6.764;2022-08-21T13:26:51;0.98;;;0.88;;
14181;SDS011;7171;50.936;6.764;2022-08-21T13:29:19;1.98;;;1.17;;
14181;SDS011;7171;50.936;6.764;2022-08-21T13:31:49;0.82;;;0.73;;
14181;SDS011;7171;50.936;6.764;2022-08-21T13:34:19;1.27;;;0.98;;
14181;SDS011;7171;50.936;6.764;2022-08-21T13:36:47;0.90;;;0.80;;
14181;SDS011;7171;50.936;6.764;2022-08-21T13:39:17;1.00;;;0.90;;
14181;SDS011;7171;50.936;6.764;2022-08-21T13:41:46;2.10;;;1.08;;
14181;SDS011;7171;50.936;6.764;2022-08-21T13:44:22;1.40;;;1.02;;
14181;SDS011;7171;50.936;6.764;2022-08-21T13:46:59;0.80;;;0.80;;
14181;SDS011;7171;50.936;6.764;2022-08-21T13:49:29;1.10;;;0.88;;
14181;SDS011;7171;50.936;6.764;2022-08-21T13:51:58;2.25;;;1.00;;
14181;SDS011;7171;50.936;6.764;2022-08-21T13:54:26;1.17;;;0.80;;
14181;SDS011;7171;50.936;6.764;2022-08-21T13:56:55;1.70;;;0.93;;
14181;SDS011;7171;50.936;6.764;2022-08-21T13:59:26;1.45;;;1.10;;
14181;SDS011;7171;50.936;6.764;2022-08-21T14:01:55;1.05;;;0.80;;
14181;SDS011;7171;50.936;6.764;2022-08-21T14:04:29;1.05;;;0.80;;
14181;SDS011;7171;50.936;6.764;2022-08-21T14:06:59;1.15;;;0.80;;
14181;SDS011;7171;50.936;6.764;2022-08-21T14:09:28;2.00;;;1.10;;
14181;SDS011;7171;50.936;6.764;2022-08-21T14:11:57;1.27;;;0.80;;
14181;SDS011;7171;50.936;6.764;2022-08-21T14:14:27;0.98;;;0.90;;
14181;SDS011;7171;50.936;6.764;2022-08-21T14:17:00;1.33;;;0.95;;
14181;SDS011;7171;50.936;6.764;2022-08-21T14:19:35;2.67;;;0.93;;
14181;SDS011;7171;50.936;6.764;2022-08-21T14:25:01;2.20;;;1.17;;
14181;SDS011;7171;50.936;6.764;2022-08-21T14:27:31;1.13;;;0.80;;
14181;SDS011;7171;50.936;6.764;2022-08-21T14:30:00;0.73;;;0.73;;
14181;SDS011;7171;50.936;6.764;2022-08-21T14:32:37;1.58;;;0.90;;
14181;SDS011;7171;50.936;6.764;2022-08-21T14:35:06;0.70;;;0.70;;
14181;SDS011;7171;50.936;6.764;2022-08-21T14:37:34;1.13;;;0.70;;
14181;SDS011;7171;50.936;6.764;2022-08-21T14:40:01;1.85;;;0.70;;
14181;SDS011;7171;50.936;6.764;2022-08-21T14:42:28;2.15;;;0.77;;
14181;SDS011;7171;50.936;6.764;2022-08-21T14:44:56;0.88;;;0.88;;
14181;SDS011;7171;50.936;6.764;2022-08-21T14:47:26;0.93;;;0.90;;
14181;SDS011;7171;50.936;6.764;2022-08-21T14:49:54;1.02;;;0.90;;
14181;SDS011;7171;50.936;6.764;2022-08-21T14:52:21;0.52;;;0.52;;
14181;SDS011;7171;50.936;6.764;2022-08-21T14:54:48;0.80;;;0.80;;
14181;SDS011;7171;50.936;6.764;2022-08-21T14:57:15;0.90;;;0.70;;
14181;SDS011;7171;50.936;6.764;2022-08-21T14:59:42;0.75;;;0.73;;
14181;SDS011;7171;50.936;6.764;2022-08-21T15:02:09;0.60;;;0.60;;
14181;SDS011;7171;50.936;6.764;2022-08-21T15:04:36;1.10;;;0.85;;
14181;SDS011;7171;50.936;6.764;2022-08-21T15:07:04;0.95;;;0.80;;
14181;SDS011;7171;50.936;6.764;2022-08-21T15:09:31;0.88;;;0.85;;
14181;SDS011;7171;50.936;6.764;2022-08-21T15:11:58;0.73;;;0.73;;
14181;SDS011;7171;50.936;6.764;2022-08-21T15:14:28;1.70;;;0.77;;
14181;SDS011;7171;50.936;6.764;2022-08-21T15:16:58;0.80;;;0.80;;
14181;SDS011;7171;50.936;6.764;2022-08-21T15:19:25;0.80;;;0.80;;
14181;SDS011;7171;50.936;6.764;2022-08-21T15:21:52;1.13;;;0.70;;